Flight Number: AVA1972 Duration: 9:00
Departure: Dakar Intl (GOOY) at 22:00 Distance: 4117.78 Nm
Arrival: Dubai Intl Airport (OMDB) at 07:00 Equipment: B777

Weather Information
Dakar / Yoff, Senegal (GOOY) 14-44N 017-30W 24M Oct 22, 2020 - 08:00 AM EDT / 2020.10.22 1200 UTC
Wind: from the NE (040 degrees) at 16 MPH (14 KT):0
Visibility: greater than 7 mile(s):0 Temperature: 89 F (32 C) Heat index: 100.6 F (38.1 C):1 Dew Point: 77 F (25 C) Relative Humidity: 66% Pressure (altimeter): 29.91 in. Hg (1013 hPa)
ob: GOOY 221200Z 04014KT CAVOK 32/25 Q1013 cycle: 12
Sunrise: 07:05 Sunset: 18:43 (UTC)

Dubai International Airport, United Arab Emirates (OMDB) 25-15N 055-20E 5M Oct 22, 2020 - 08:00 AM EDT / 2020.10.22 1200 UTC
Wind: from the N (350 degrees) at 12 MPH (10 KT):0
Visibility: greater than 7 mile(s):0 Temperature: 91 F (33 C) Dew Point: 64 F (18 C) Relative Humidity: 41% Pressure (altimeter): 29.80 in. Hg (1009 hPa)
ob: OMDB 221200Z 35010KT CAVOK 33/18 Q1009 NOSIG cycle: 12
Sunrise: 02:23 Sunset: 13:42 (UTC)

TAF:2020/10/22 12:03 TAF OMDB 221100Z 2212/2318 32012KT CAVOK BECMG 2216/2218 14005KT PROB30 2300/2305 3000 BR BECMG 2308/2310 34012KT BECMG 2316/2318 09005KT

Previous Pireps for this route
Date Aircraft Flight time Fuel used Landing rate On time
2018-02-04B7778.55194081-394Yes
(pireps marked green are flown by you)

Route map